Pagina principale
METAR-TAF:

METAR-TAF

Aeroporti :

Aeroporto di Brescia-Ghedi

Brescia Ghedi, Italia

latitudine: 45-25N, longitudine: 010-17E, altezza: 102 m

Osservazione

Il bollettino è stato emesso 37 minuti fa, alle 18:55 UTC
Vento 5 kt da sud/sud-est
Temperature 23°C
Umidità 33%
Pressione 1017 hPa
Visibilità 10 km o più
Nubi sparse ad un'altezza di 7000 ft

METAR: LIPL 231855Z 15005KT 9999 SCT070 23/06 Q1017 RMK SCT VIS MIN 9999 WIND THR31 14004KT WIND THR13 14005KT BLU

Ora: 21:32 (19:32 UTC)

Previsione

Il bollettino è stato emesso 2 ore e 32 minuti fa, alle 17:00 UTC
Previsione valida dal 23 alle 18 UTC al 24 alle 03 UTC
Vento 5 kt da sud-est
Visibilità 10 km o più
Poco nuvoloso ad un'altezza di 3500 ft

TAF: LIPL 231700Z 2318/2403 13005KT 9999 FEW035

Osservazioni e previsioni meteorologiche di più di 4000 aeroporti (messaggi METAR e TAF).

Le stazioni disponibili sono rappresentate dai dischi gialli e rossi sulla carta.

Puntare il mouse per vedere il nome della stazione.

Clicca sopra per visualizzare le osservazioni e previsioni meteorologiche.

Per cambiare la mappa : fare clic sui pulsanti verdi con una croce nera per ingrandire, il pulsante verde con un trattino per diminuire, o sulla freccia verde per le mappe adiacenti.


METAR-TAF: